Fargo, North Dakota
Current Conditions -  °F | °C
As of 3:53 AM on Sunday 23 Nov 2014 (Local Time) from KFAR Reporting Station
Haze Haze  
Wind Chill: -2°   Ceiling: Unl
Heat Index:   Visibility: 3mi
Dew Point: -1°   Wind: 6mph
Humidity: 92%   Direction: 170°S
Pressure: 29.39"   Gusts: NA
Location:  46.88°N, 96.78°W
Report Text: KFAR 230953Z 17005KT 3SM BR CLR 01/M01 A2939 RMK AO2 SLP959 T00061006
Loading
Personal Weather Stations






























Interactive Weather Map New forecast layout! Learn more

10-Day Weather Forecast

Advertisements
Track Severe Weather on mobile